FR6477 LFRS-LFML
Flight info
| Callsign | FR6477 |
|---|---|
| Flight time | 1h 8m |
| Altitude | 33000 |
| Route | LUGEN UM184 TUPAR DCT DIDRU DCT ADATU DCT LERGA |
| Aircraft | B738/M-SDE2E3FGHIRWXY/LB1 |
Departure
| Time | 2026-05-04 17:16 |
|---|---|
| Airport | Nantes Atlantique Airport (LFRS) |
Arrival
| Time | 2026-05-04 18:24 |
|---|---|
| Airport | Marseille Provence Airport (LFML) |
| Time | Latitude | Longitude | Altitude | Speed | Heading |
|---|---|---|---|---|---|
| 2026-05-04 16:26 | 47.15712 | -1.60272 | 97 ft | 0 kts | 44° |
| 2026-05-04 17:00 | 47.15700 | -1.60288 | 98 ft | 4 kts | 40° |
| 2026-05-04 17:01 | 47.15654 | -1.60325 | 98 ft | 4 kts | 355° |
| 2026-05-04 17:01 | 47.15639 | -1.60318 | 97 ft | 4 kts | 319° |
| 2026-05-04 17:08 | 47.15659 | -1.60344 | 98 ft | 10 kts | 318° |
| 2026-05-04 17:08 | 47.15713 | -1.60426 | 98 ft | 12 kts | 298° |
| 2026-05-04 17:09 | 47.15677 | -1.60530 | 99 ft | 14 kts | 211° |
| 2026-05-04 17:09 | 47.15571 | -1.60611 | 99 ft | 21 kts | 207° |
| 2026-05-04 17:09 | 47.15430 | -1.60719 | 95 ft | 24 kts | 208° |
| 2026-05-04 17:10 | 47.15148 | -1.60935 | 97 ft | 22 kts | 207° |
| 2026-05-04 17:10 | 47.14753 | -1.61228 | 94 ft | 20 kts | 210° |
| 2026-05-04 17:11 | 47.14634 | -1.61328 | 93 ft | 20 kts | 210° |
| 2026-05-04 17:11 | 47.14510 | -1.61420 | 92 ft | 20 kts | 207° |
| 2026-05-04 17:11 | 47.14258 | -1.61614 | 85 ft | 20 kts | 204° |
| 2026-05-04 17:12 | 47.14181 | -1.61676 | 81 ft | 0 kts | 224° |
| 2026-05-04 17:13 | 47.14150 | -1.61883 | 84 ft | 17 kts | 292° |
| 2026-05-04 17:14 | 47.14211 | -1.61918 | 80 ft | 0 kts | 26° |
| 2026-05-04 17:15 | 47.14366 | -1.61806 | 88 ft | 61 kts | 27° |
| 2026-05-04 17:15 | 47.15924 | -1.60635 | 220 ft | 174 kts | 27° |
| 2026-05-04 17:16 | 47.17926 | -1.58967 | 1966 ft | 164 kts | 27° |
| 2026-05-04 17:16 | 47.20317 | -1.55488 | 4158 ft | 182 kts | 97° |
| 2026-05-04 17:17 | 47.19715 | -1.53913 | 4942 ft | 182 kts | 141° |
| 2026-05-04 17:17 | 47.15959 | -1.52747 | 6793 ft | 202 kts | 148° |
| 2026-05-04 17:18 | 47.15233 | -1.51872 | 7067 ft | 207 kts | 126° |
| 2026-05-04 17:18 | 47.14263 | -1.47901 | 8502 ft | 182 kts | 97° |
| 2026-05-04 17:19 | 47.13897 | -1.43746 | 10006 ft | 196 kts | 96° |
| 2026-05-04 17:19 | 47.14043 | -1.40338 | 10755 ft | 201 kts | 93° |
| 2026-05-04 17:20 | 47.13278 | -1.36597 | 11856 ft | 194 kts | 125° |
| 2026-05-04 17:20 | 47.11006 | -1.35029 | 12743 ft | 192 kts | 182° |
| 2026-05-04 17:20 | 47.09667 | -1.35142 | 13248 ft | 193 kts | 182° |
| 2026-05-04 17:21 | 47.06940 | -1.35371 | 14083 ft | 199 kts | 182° |
| 2026-05-04 17:21 | 47.04140 | -1.35608 | 14945 ft | 202 kts | 182° |
| 2026-05-04 17:22 | 47.02698 | -1.35686 | 15184 ft | 215 kts | 180° |
| 2026-05-04 17:22 | 47.01142 | -1.35625 | 15329 ft | 232 kts | 176° |
| 2026-05-04 17:23 | 46.96016 | -1.33374 | 16012 ft | 275 kts | 152° |
| 2026-05-04 17:23 | 46.94352 | -1.31902 | 16337 ft | 294 kts | 148° |
| 2026-05-04 17:23 | 46.90860 | -1.28039 | 16675 ft | 335 kts | 142° |
| 2026-05-04 17:24 | 46.89065 | -1.25807 | 16732 ft | 333 kts | 141° |
| 2026-05-04 17:24 | 46.83841 | -1.19052 | 16924 ft | 355 kts | 140° |
| 2026-05-04 17:25 | 46.81943 | -1.16594 | 17084 ft | 373 kts | 140° |
| 2026-05-04 17:25 | 46.77986 | -1.11467 | 18171 ft | 384 kts | 141° |
| 2026-05-04 17:26 | 46.74005 | -1.06314 | 19364 ft | 387 kts | 141° |
| 2026-05-04 17:26 | 46.67892 | -0.98429 | 21006 ft | 394 kts | 141° |
| 2026-05-04 17:27 | 46.63754 | -0.93104 | 22066 ft | 399 kts | 141° |
| 2026-05-04 17:27 | 46.59566 | -0.87727 | 23075 ft | 404 kts | 142° |
| 2026-05-04 17:28 | 46.55335 | -0.82290 | 24036 ft | 406 kts | 142° |
| 2026-05-04 17:29 | 46.49009 | -0.74140 | 25282 ft | 410 kts | 142° |
| 2026-05-04 17:29 | 46.42846 | -0.65456 | 26491 ft | 418 kts | 131° |
| 2026-05-04 17:30 | 46.38571 | -0.54212 | 27576 ft | 429 kts | 122° |
| 2026-05-04 17:31 | 46.35886 | -0.46480 | 28269 ft | 431 kts | 122° |
| 2026-05-04 17:31 | 46.31802 | -0.34907 | 29678 ft | 426 kts | 122° |
| 2026-05-04 17:32 | 46.29108 | -0.27333 | 30508 ft | 423 kts | 122° |
| 2026-05-04 17:33 | 46.25034 | -0.15936 | 31354 ft | 425 kts | 123° |
| 2026-05-04 17:33 | 46.23676 | -0.12144 | 31673 ft | 425 kts | 123° |
| 2026-05-04 17:34 | 46.19600 | -0.00790 | 32487 ft | 427 kts | 123° |
| 2026-05-04 17:34 | 46.18255 | 0.03042 | 32642 ft | 432 kts | 120° |
| 2026-05-04 17:35 | 46.15387 | 0.15628 | 32936 ft | 444 kts | 112° |
| 2026-05-04 17:35 | 46.13607 | 0.24097 | 32923 ft | 437 kts | 113° |
| 2026-05-04 17:36 | 46.11810 | 0.32444 | 32944 ft | 436 kts | 113° |
| 2026-05-04 17:36 | 46.09980 | 0.40795 | 32901 ft | 437 kts | 114° |
| 2026-05-04 17:37 | 46.08135 | 0.49155 | 32922 ft | 439 kts | 114° |
| 2026-05-04 17:37 | 46.06275 | 0.57554 | 32934 ft | 440 kts | 114° |
| 2026-05-04 17:38 | 46.04418 | 0.65912 | 32930 ft | 442 kts | 114° |
| 2026-05-04 17:38 | 46.02535 | 0.74357 | 32924 ft | 443 kts | 114° |
| 2026-05-04 17:39 | 45.99696 | 0.87028 | 32915 ft | 444 kts | 114° |
| 2026-05-04 17:39 | 45.97794 | 0.95469 | 32926 ft | 444 kts | 114° |
| 2026-05-04 17:40 | 45.95880 | 1.03933 | 32901 ft | 445 kts | 114° |
| 2026-05-04 17:40 | 45.93970 | 1.12346 | 32919 ft | 445 kts | 114° |
| 2026-05-04 17:41 | 45.92041 | 1.20812 | 32896 ft | 445 kts | 114° |
| 2026-05-04 17:41 | 45.90107 | 1.29264 | 32907 ft | 445 kts | 114° |
| 2026-05-04 17:42 | 45.88171 | 1.37693 | 32916 ft | 444 kts | 114° |
| 2026-05-04 17:42 | 45.86229 | 1.46113 | 32918 ft | 444 kts | 114° |
| 2026-05-04 17:43 | 45.84293 | 1.54477 | 32913 ft | 444 kts | 115° |
| 2026-05-04 17:43 | 45.82340 | 1.62882 | 32912 ft | 443 kts | 114° |
| 2026-05-04 17:44 | 45.80384 | 1.71266 | 32923 ft | 443 kts | 115° |
| 2026-05-04 17:44 | 45.78419 | 1.79655 | 32926 ft | 444 kts | 115° |
| 2026-05-04 17:45 | 45.76449 | 1.88037 | 32923 ft | 445 kts | 115° |
| 2026-05-04 17:45 | 45.74466 | 1.96439 | 32899 ft | 445 kts | 114° |
| 2026-05-04 17:46 | 45.72478 | 2.04832 | 32918 ft | 446 kts | 114° |
| 2026-05-04 17:46 | 45.70491 | 2.13182 | 32924 ft | 447 kts | 114° |
| 2026-05-04 17:47 | 45.68479 | 2.21616 | 32925 ft | 448 kts | 114° |
| 2026-05-04 17:47 | 45.66454 | 2.30063 | 32931 ft | 450 kts | 114° |
| 2026-05-04 17:48 | 45.64418 | 2.38530 | 32916 ft | 451 kts | 114° |
| 2026-05-04 17:48 | 45.62369 | 2.47020 | 32931 ft | 453 kts | 114° |
| 2026-05-04 17:49 | 45.60304 | 2.55542 | 32933 ft | 455 kts | 114° |
| 2026-05-04 17:49 | 45.58226 | 2.64089 | 32935 ft | 456 kts | 114° |
| 2026-05-04 17:50 | 45.56135 | 2.72659 | 32931 ft | 457 kts | 114° |
| 2026-05-04 17:50 | 45.54047 | 2.81187 | 32924 ft | 458 kts | 114° |
| 2026-05-04 17:51 | 45.51721 | 2.89612 | 32936 ft | 455 kts | 118° |
| 2026-05-04 17:51 | 45.49193 | 2.97878 | 32940 ft | 455 kts | 119° |
| 2026-05-04 17:52 | 45.46661 | 3.06160 | 32942 ft | 456 kts | 118° |
| 2026-05-04 17:52 | 45.44152 | 3.14456 | 32914 ft | 456 kts | 119° |
| 2026-05-04 17:53 | 45.41649 | 3.22754 | 32944 ft | 456 kts | 119° |
| 2026-05-04 17:53 | 45.39135 | 3.31063 | 32946 ft | 457 kts | 119° |
| 2026-05-04 17:54 | 45.36626 | 3.39326 | 32948 ft | 458 kts | 119° |
| 2026-05-04 17:54 | 45.34084 | 3.47666 | 32604 ft | 464 kts | 119° |
| 2026-05-04 17:55 | 45.32792 | 3.51891 | 32005 ft | 463 kts | 119° |
| 2026-05-04 17:55 | 45.31513 | 3.56076 | 31366 ft | 461 kts | 119° |
| 2026-05-04 17:55 | 45.30235 | 3.60250 | 30728 ft | 460 kts | 119° |
| 2026-05-04 17:55 | 45.28979 | 3.64349 | 30265 ft | 455 kts | 119° |
| 2026-05-04 17:56 | 45.27721 | 3.68445 | 29732 ft | 450 kts | 119° |
| 2026-05-04 17:56 | 45.26474 | 3.72496 | 29190 ft | 445 kts | 118° |
| 2026-05-04 17:56 | 45.25192 | 3.76444 | 28730 ft | 435 kts | 123° |
| 2026-05-04 17:56 | 45.23671 | 3.80098 | 28376 ft | 424 kts | 128° |
| 2026-05-04 17:57 | 45.22059 | 3.83551 | 28011 ft | 418 kts | 129° |
| 2026-05-04 17:57 | 45.20412 | 3.86975 | 27639 ft | 426 kts | 130° |
| 2026-05-04 17:57 | 45.18740 | 3.90473 | 27275 ft | 430 kts | 129° |
| 2026-05-04 17:57 | 45.17084 | 3.94008 | 26891 ft | 428 kts | 129° |
| 2026-05-04 17:58 | 45.15463 | 3.97525 | 26516 ft | 425 kts | 128° |
| 2026-05-04 17:58 | 45.13861 | 4.01030 | 26163 ft | 421 kts | 128° |
| 2026-05-04 17:58 | 45.12277 | 4.04506 | 25799 ft | 418 kts | 128° |
| 2026-05-04 17:58 | 45.10722 | 4.07914 | 25443 ft | 415 kts | 128° |
| 2026-05-04 17:59 | 45.09158 | 4.11336 | 25088 ft | 413 kts | 128° |
| 2026-05-04 17:59 | 45.07602 | 4.14732 | 24758 ft | 410 kts | 128° |
| 2026-05-04 17:59 | 45.04507 | 4.21470 | 24047 ft | 406 kts | 128° |
| 2026-05-04 18:00 | 45.02695 | 4.24456 | 23683 ft | 396 kts | 146° |
| 2026-05-04 18:00 | 45.00410 | 4.26525 | 23364 ft | 388 kts | 154° |
| 2026-05-04 18:00 | 44.98067 | 4.28403 | 22986 ft | 387 kts | 154° |
| 2026-05-04 18:00 | 44.95732 | 4.30272 | 22624 ft | 385 kts | 154° |
| 2026-05-04 18:01 | 44.93410 | 4.32143 | 22297 ft | 383 kts | 154° |
| 2026-05-04 18:01 | 44.91104 | 4.34016 | 21945 ft | 382 kts | 154° |
| 2026-05-04 18:01 | 44.88803 | 4.35893 | 21609 ft | 381 kts | 154° |
| 2026-05-04 18:02 | 44.84227 | 4.39634 | 20962 ft | 380 kts | 153° |
| 2026-05-04 18:02 | 44.81939 | 4.41505 | 20635 ft | 379 kts | 153° |
| 2026-05-04 18:02 | 44.79661 | 4.43367 | 20316 ft | 378 kts | 153° |
| 2026-05-04 18:02 | 44.77420 | 4.45196 | 20006 ft | 377 kts | 153° |
| 2026-05-04 18:03 | 44.75158 | 4.47041 | 19674 ft | 376 kts | 153° |
| 2026-05-04 18:03 | 44.72898 | 4.48883 | 19343 ft | 374 kts | 153° |
| 2026-05-04 18:03 | 44.70653 | 4.50711 | 19014 ft | 371 kts | 153° |
| 2026-05-04 18:03 | 44.68427 | 4.52522 | 18711 ft | 369 kts | 153° |
| 2026-05-04 18:04 | 44.66144 | 4.54099 | 18371 ft | 363 kts | 166° |
| 2026-05-04 18:04 | 44.63703 | 4.54871 | 18064 ft | 358 kts | 171° |
| 2026-05-04 18:04 | 44.58844 | 4.56311 | 17387 ft | 355 kts | 171° |
| 2026-05-04 18:05 | 44.56466 | 4.57036 | 17059 ft | 352 kts | 170° |
| 2026-05-04 18:05 | 44.54080 | 4.57772 | 16763 ft | 350 kts | 170° |
| 2026-05-04 18:05 | 44.51707 | 4.58509 | 16454 ft | 349 kts | 170° |
| 2026-05-04 18:05 | 44.49333 | 4.59248 | 16155 ft | 347 kts | 170° |
| 2026-05-04 18:06 | 44.44630 | 4.60712 | 15562 ft | 346 kts | 170° |
| 2026-05-04 18:06 | 44.42276 | 4.61444 | 15254 ft | 346 kts | 170° |
| 2026-05-04 18:06 | 44.39931 | 4.62174 | 14947 ft | 345 kts | 170° |
| 2026-05-04 18:07 | 44.37585 | 4.62903 | 14665 ft | 344 kts | 170° |
| 2026-05-04 18:07 | 44.36041 | 4.63382 | 14461 ft | 344 kts | 170° |
| 2026-05-04 18:07 | 44.33705 | 4.64107 | 14164 ft | 344 kts | 170° |
| 2026-05-04 18:07 | 44.31374 | 4.64828 | 13866 ft | 342 kts | 171° |
| 2026-05-04 18:08 | 44.29036 | 4.65367 | 13534 ft | 339 kts | 176° |
| 2026-05-04 18:08 | 44.25936 | 4.65782 | 13120 ft | 336 kts | 177° |
| 2026-05-04 18:08 | 44.24360 | 4.65972 | 12915 ft | 334 kts | 177° |
| 2026-05-04 18:08 | 44.22083 | 4.66258 | 12625 ft | 332 kts | 176° |
| 2026-05-04 18:09 | 44.17522 | 4.66888 | 12042 ft | 327 kts | 176° |
| 2026-05-04 18:09 | 44.13010 | 4.67542 | 11466 ft | 323 kts | 175° |
| 2026-05-04 18:10 | 44.10826 | 4.68138 | 11174 ft | 319 kts | 163° |
| 2026-05-04 18:10 | 44.08787 | 4.69307 | 10897 ft | 313 kts | 159° |
| 2026-05-04 18:10 | 44.06801 | 4.70499 | 10617 ft | 307 kts | 159° |
| 2026-05-04 18:10 | 44.04873 | 4.71624 | 10350 ft | 302 kts | 160° |
| 2026-05-04 18:11 | 44.02942 | 4.72724 | 10095 ft | 297 kts | 160° |
| 2026-05-04 18:11 | 44.01048 | 4.73791 | 9933 ft | 288 kts | 160° |
| 2026-05-04 18:11 | 43.99240 | 4.74807 | 9920 ft | 271 kts | 160° |
| 2026-05-04 18:11 | 43.97522 | 4.75774 | 9449 ft | 268 kts | 160° |
| 2026-05-04 18:12 | 43.95826 | 4.76726 | 9127 ft | 260 kts | 160° |
| 2026-05-04 18:12 | 43.94173 | 4.77654 | 8873 ft | 252 kts | 160° |
| 2026-05-04 18:12 | 43.92558 | 4.78560 | 8649 ft | 249 kts | 160° |
| 2026-05-04 18:12 | 43.90940 | 4.79467 | 8440 ft | 253 kts | 160° |
| 2026-05-04 18:13 | 43.89295 | 4.80388 | 8212 ft | 257 kts | 160° |
| 2026-05-04 18:13 | 43.87655 | 4.81307 | 8005 ft | 257 kts | 160° |
| 2026-05-04 18:13 | 43.84359 | 4.83153 | 7537 ft | 258 kts | 160° |
| 2026-05-04 18:14 | 43.82681 | 4.84092 | 7326 ft | 261 kts | 160° |
| 2026-05-04 18:14 | 43.81006 | 4.85028 | 7090 ft | 258 kts | 160° |
| 2026-05-04 18:14 | 43.79354 | 4.85954 | 6866 ft | 254 kts | 159° |
| 2026-05-04 18:15 | 43.76117 | 4.87775 | 6427 ft | 248 kts | 159° |
| 2026-05-04 18:15 | 43.72967 | 4.89543 | 5966 ft | 236 kts | 159° |
| 2026-05-04 18:15 | 43.71471 | 4.90382 | 5755 ft | 228 kts | 159° |
| 2026-05-04 18:16 | 43.70032 | 4.91198 | 5555 ft | 219 kts | 159° |
| 2026-05-04 18:16 | 43.68649 | 4.91989 | 5361 ft | 210 kts | 159° |
| 2026-05-04 18:16 | 43.67339 | 4.92739 | 5185 ft | 202 kts | 159° |
| 2026-05-04 18:17 | 43.64920 | 4.94120 | 4880 ft | 175 kts | 158° |
| 2026-05-04 18:17 | 43.63813 | 4.94751 | 4739 ft | 171 kts | 158° |
| 2026-05-04 18:17 | 43.61658 | 4.96095 | 4427 ft | 167 kts | 144° |
| 2026-05-04 18:18 | 43.60797 | 4.97152 | 4271 ft | 167 kts | 136° |
| 2026-05-04 18:18 | 43.59991 | 4.98289 | 4117 ft | 161 kts | 135° |
| 2026-05-04 18:18 | 43.59252 | 4.99344 | 4002 ft | 144 kts | 135° |
| 2026-05-04 18:18 | 43.58550 | 5.00342 | 3843 ft | 144 kts | 134° |
| 2026-05-04 18:19 | 43.57206 | 5.02252 | 3496 ft | 135 kts | 133° |
| 2026-05-04 18:19 | 43.56557 | 5.03172 | 3328 ft | 133 kts | 133° |
| 2026-05-04 18:19 | 43.55918 | 5.04079 | 3145 ft | 131 kts | 132° |
| 2026-05-04 18:20 | 43.55294 | 5.04977 | 2956 ft | 129 kts | 132° |
| 2026-05-04 18:20 | 43.54661 | 5.05869 | 2773 ft | 131 kts | 132° |
| 2026-05-04 18:20 | 43.54036 | 5.06757 | 2610 ft | 129 kts | 132° |
| 2026-05-04 18:20 | 43.53414 | 5.07632 | 2442 ft | 128 kts | 132° |
| 2026-05-04 18:21 | 43.52790 | 5.08526 | 2253 ft | 130 kts | 132° |
| 2026-05-04 18:21 | 43.52170 | 5.09410 | 2069 ft | 127 kts | 132° |
| 2026-05-04 18:21 | 43.51563 | 5.10274 | 1963 ft | 125 kts | 133° |
| 2026-05-04 18:21 | 43.50954 | 5.11131 | 1820 ft | 126 kts | 132° |
| 2026-05-04 18:22 | 43.50354 | 5.12011 | 1612 ft | 127 kts | 133° |
| 2026-05-04 18:22 | 43.49730 | 5.12896 | 1446 ft | 129 kts | 133° |
| 2026-05-04 18:22 | 43.49100 | 5.13785 | 1296 ft | 132 kts | 133° |
| 2026-05-04 18:22 | 43.48453 | 5.14698 | 1137 ft | 134 kts | 133° |
| 2026-05-04 18:23 | 43.47798 | 5.15626 | 968 ft | 136 kts | 134° |
| 2026-05-04 18:23 | 43.47135 | 5.16563 | 756 ft | 138 kts | 133° |
| 2026-05-04 18:23 | 43.46460 | 5.17535 | 568 ft | 141 kts | 133° |
| 2026-05-04 18:23 | 43.45766 | 5.18504 | 296 ft | 145 kts | 133° |
| 2026-05-04 18:24 | 43.45074 | 5.19514 | 185 ft | 141 kts | 133° |
| 2026-05-04 18:24 | 43.44402 | 5.20478 | 37 ft | 137 kts | 133° |
| 2026-05-04 18:24 | 43.43827 | 5.21296 | 41 ft | 93 kts | 135° |
| 2026-05-04 18:24 | 43.43527 | 5.21712 | 46 ft | 30 kts | 134° |
| 2026-05-04 18:25 | 43.43421 | 5.21870 | 49 ft | 22 kts | 130° |
| 2026-05-04 18:25 | 43.43338 | 5.22036 | 49 ft | 21 kts | 101° |
| 2026-05-04 18:25 | 43.43335 | 5.22154 | 52 ft | 8 kts | 89° |
| 2026-05-04 18:25 | 43.43344 | 5.22233 | 50 ft | 8 kts | 64° |
| 2026-05-04 18:26 | 43.43387 | 5.22280 | 51 ft | 8 kts | 19° |
| 2026-05-04 18:26 | 43.43440 | 5.22262 | 49 ft | 8 kts | 330° |
| 2026-05-04 18:26 | 43.43494 | 5.22221 | 50 ft | 9 kts | 334° |
| 2026-05-04 18:26 | 43.43552 | 5.22170 | 49 ft | 11 kts | 321° |
| 2026-05-04 18:27 | 43.43622 | 5.22123 | 48 ft | 12 kts | 333° |
| 2026-05-04 18:27 | 43.43698 | 5.22063 | 46 ft | 13 kts | 328° |
| 2026-05-04 18:27 | 43.43779 | 5.22034 | 44 ft | 13 kts | 22° |
| 2026-05-04 18:27 | 43.43846 | 5.22109 | 44 ft | 12 kts | 46° |
| 2026-05-04 18:28 | 43.43907 | 5.22184 | 43 ft | 12 kts | 30° |
| 2026-05-04 18:28 | 43.43965 | 5.22225 | 41 ft | 5 kts | 26° |
| 2026-05-04 18:28 | 43.43968 | 5.22227 | 42 ft | 0 kts | 26° |